Location Isle ofWight, ISLE OF WIGHT, UK

ob UISISLE1 221230Z AUTO 06006G10KT CLR 06/01 A3023 RMK SLPNO 

2018.02.22 1230 UTC
Wind from the ENE (061 degrees) at 6.8 MPH (6 KT) gusting to 11.0 MPH (10 KT)
Visibility    Mile(s)
Sky Conditions  clear
Temperature 43.6 F (6 C)
Dew Point 33.7 F (1 C)
Relative Humidity 68%
Pressure   30.232 in. Hg (1024 hPa)
Rain  0.00 in.
Daily Rain 0.000 in.

Station Name  Isle of Wight Weather
Longitude, Latitude  -1.27, 50.72
Elevation 45
Station URL http://www.isleofwightweather.co.uk
Software Type WeatherDisplay:10.37R